Time;durP1;ratioP1;P1;durP2;ratioP2;P2;SDS_P1;SDS_P2;PMS_P1;PMS_P2;Temp;Humidity;BMP_temperature;BMP_pressure;BME280_temperature;BME280_humidity;BME280_pressure;Samples;Min_cycle;Max_cycle;Signal;HPM_P1;HPM_P2
2023/08/19 00:02:27;;;;;;;1.75;0.70;;;25.40;68.30;;;;;;6170061;28;20065;-46
2023/08/19 00:05:29;;;;;;;1.02;0.60;;;25.30;68.40;;;;;;6171668;28;20054;-46
2023/08/19 00:08:31;;;;;;;1.00;0.85;;;24.70;67.80;;;;;;6165934;28;20519;-47
2023/08/19 00:11:33;;;;;;;0.90;0.60;;;25.20;69.40;;;;;;6177030;28;20204;-48
2023/08/19 00:14:34;;;;;;;0.90;0.70;;;25.20;68.80;;;;;;6166196;28;20058;-50
2023/08/19 00:17:35;;;;;;;1.23;0.77;;;24.70;68.50;;;;;;6172017;28;20136;-49
2023/08/19 00:20:39;;;;;;;0.90;0.60;;;25.10;68.50;;;;;;6172198;28;20038;-50
2023/08/19 00:23:40;;;;;;;1.00;0.57;;;24.90;68.80;;;;;;6173695;28;20689;-48
2023/08/19 00:26:42;;;;;;;1.40;0.73;;;24.80;68.50;;;;;;6191894;28;20330;-49
2023/08/19 00:29:43;;;;;;;0.85;0.60;;;25.20;69.30;;;;;;6168383;28;20054;-50
2023/08/19 00:32:47;;;;;;;1.08;0.57;;;25.10;69.20;;;;;;6173472;28;20038;-49
2023/08/19 00:35:51;;;;;;;0.95;0.57;;;24.90;69.10;;;;;;6177042;28;20034;-49
2023/08/19 00:38:55;;;;;;;1.02;0.55;;;25.20;69.10;;;;;;6173388;28;20634;-50
2023/08/19 00:41:58;;;;;;;1.08;0.85;;;25.10;69.20;;;;;;6174187;28;20042;-44
2023/08/19 00:44:59;;;;;;;1.15;0.60;;;25.30;69.50;;;;;;6175362;28;20045;-47
2023/08/19 00:48:02;;;;;;;0.73;0.50;;;24.80;69.10;;;;;;6175596;28;20054;-52
2023/08/19 00:51:06;;;;;;;1.05;0.70;;;25.10;69.40;;;;;;6174113;28;20528;-50
2023/08/19 00:54:07;;;;;;;0.90;0.60;;;25.00;69.70;;;;;;6173769;28;20042;-51
2023/08/19 00:57:09;;;;;;;1.20;0.75;;;24.80;69.20;;;;;;6174784;28;20497;-48
2023/08/19 01:00:13;;;;;;;0.85;0.60;;;25.20;69.80;;;;;;6175200;28;20117;-49
2023/08/19 01:03:14;;;;;;;1.17;0.60;;;25.10;70.00;;;;;;6174995;28;20035;-47
2023/08/19 01:06:24;;;;;;;0.80;0.40;;;25.30;70.00;;;;;;6173481;28;20522;-50
2023/08/19 01:09:37;;;;;;;1.13;0.65;;;25.10;70.20;;;;;;6171904;28;20042;-49
2023/08/19 01:12:46;;;;;;;1.08;0.60;;;25.10;69.90;;;;;;6197110;23;20058;-52
2023/08/19 01:15:53;;;;;;;0.98;0.60;;;24.80;69.90;;;;;;6170940;28;20070;-50
2023/08/19 01:18:56;;;;;;;0.85;0.63;;;25.10;70.10;;;;;;6172353;28;20086;-49
2023/08/19 01:22:03;;;;;;;0.82;0.50;;;25.10;70.70;;;;;;6169491;28;20540;-50
2023/08/19 01:25:09;;;;;;;0.73;0.40;;;24.80;70.50;;;;;;6172316;28;20050;-50
2023/08/19 01:28:11;;;;;;;0.88;0.60;;;25.10;70.40;;;;;;6173202;28;21004;-50
2023/08/19 01:31:12;;;;;;;1.02;0.73;;;25.10;70.50;;;;;;6174272;28;20050;-49
2023/08/19 01:34:14;;;;;;;0.77;0.52;;;24.70;70.30;;;;;;6172996;28;20038;-49
2023/08/19 01:37:24;;;;;;;0.90;0.60;;;25.00;70.70;;;;;;6174070;28;20053;-53
2023/08/19 01:40:27;;;;;;;1.33;0.63;;;25.20;70.60;;;;;;6172773;28;20073;-52
2023/08/19 01:43:29;;;;;;;0.95;0.50;;;25.10;70.70;;;;;;6171970;28;20700;-52
2023/08/19 01:46:31;;;;;;;0.90;0.60;;;25.10;70.60;;;;;;6172866;28;20096;-49
2023/08/19 01:49:33;;;;;;;1.15;0.70;;;24.70;70.60;;;;;;6172763;28;20035;-52
2023/08/19 01:52:36;;;;;;;1.25;0.63;;;25.20;70.60;;;;;;6153430;28;20062;-51
2023/08/19 01:55:38;;;;;;;0.45;0.45;;;24.70;70.50;;;;;;6174306;28;20058;-51
2023/08/19 01:58:40;;;;;;;0.90;0.60;;;25.10;71.00;;;;;;6173990;28;20035;-48
2023/08/19 02:01:42;;;;;;;0.50;0.40;;;25.70;71.90;;;;;;6170286;28;20038;-51
2023/08/19 02:04:43;;;;;;;0.95;0.57;;;25.20;70.90;;;;;;6174490;28;20042;-51
2023/08/19 02:07:47;;;;;;;0.60;0.40;;;25.20;71.40;;;;;;6174113;28;20042;-51
2023/08/19 02:10:49;;;;;;;0.98;0.50;;;25.20;71.00;;;;;;6174425;28;20038;-48
2023/08/19 02:13:53;;;;;;;2.05;0.50;;;25.20;71.10;;;;;;6170460;28;20046;-52
2023/08/19 02:16:55;;;;;;;0.57;0.50;;;24.80;70.90;;;;;;6169769;28;20045;-50
2023/08/19 02:19:59;;;;;;;0.70;0.50;;;25.20;71.90;;;;;;6171365;28;20448;-46
2023/08/19 02:23:01;;;;;;;0.80;0.50;;;23.80;68.50;;;;;;6172003;28;20070;-49
2023/08/19 02:26:03;;;;;;;0.82;0.50;;;25.00;71.20;;;;;;6171434;28;20341;-49
2023/08/19 02:29:05;;;;;;;1.35;0.70;;;25.20;70.90;;;;;;6169857;28;20554;-49
2023/08/19 02:32:07;;;;;;;1.77;0.50;;;25.20;71.30;;;;;;6170727;28;20062;-50
2023/08/19 02:35:10;;;;;;;0.60;0.50;;;25.30;71.40;;;;;;6169977;28;20543;-52
2023/08/19 02:38:11;;;;;;;0.60;0.43;;;25.30;71.50;;;;;;6171452;28;20069;-49
2023/08/19 02:41:15;;;;;;;0.90;0.32;;;25.10;71.00;;;;;;6172224;28;20042;-49
2023/08/19 02:44:17;;;;;;;0.40;0.30;;;25.10;71.70;;;;;;6171243;28;20038;-49
2023/08/19 02:47:19;;;;;;;0.65;0.43;;;25.10;71.70;;;;;;6171461;28;20054;-48
2023/08/19 02:50:27;;;;;;;0.32;0.30;;;25.10;71.80;;;;;;6171035;28;20519;-48
2023/08/19 02:53:28;;;;;;;0.57;0.50;;;25.10;71.60;;;;;;6171784;28;20050;-49
2023/08/19 02:56:34;;;;;;;0.45;0.30;;;25.10;71.90;;;;;;6171703;28;20034;-49
2023/08/19 02:59:35;;;;;;;0.40;0.40;;;24.80;71.60;;;;;;6170452;28;20048;-48
2023/08/19 03:02:39;;;;;;;0.90;0.50;;;25.10;72.40;;;;;;6170952;28;20038;-48
2023/08/19 03:05:42;;;;;;;0.60;0.40;;;25.20;71.90;;;;;;6172251;28;20038;-50
2023/08/19 03:08:45;;;;;;;0.68;0.45;;;24.30;71.20;;;;;;6171368;28;20076;-50
2023/08/19 03:11:47;;;;;;;0.30;0.30;;;24.70;71.40;;;;;;6172685;28;20038;-48
2023/08/19 03:14:49;;;;;;;0.60;0.40;;;24.90;71.80;;;;;;6169586;28;20046;-48
2023/08/19 03:17:50;;;;;;;0.40;0.30;;;25.10;71.20;;;;;;6170024;28;20091;-50
2023/08/19 03:20:56;;;;;;;0.68;0.47;;;24.70;71.40;;;;;;6169255;28;20065;-50
2023/08/19 03:23:58;;;;;;;0.68;0.30;;;25.10;71.40;;;;;;6170459;28;20053;-51
2023/08/19 03:27:00;;;;;;;0.45;0.30;;;24.80;71.30;;;;;;6172753;28;20641;-48
2023/08/19 03:30:04;;;;;;;0.30;0.30;;;25.10;71.40;;;;;;6171898;28;20529;-51
2023/08/19 03:33:07;;;;;;;0.60;0.40;;;25.20;71.30;;;;;;6169931;28;20097;-48
2023/08/19 03:36:09;;;;;;;0.30;0.20;;;25.40;71.40;;;;;;6169987;28;20116;-47
2023/08/19 03:39:11;;;;;;;0.90;0.30;;;25.00;71.80;;;;;;6171687;28;20482;-51
2023/08/19 03:42:13;;;;;;;0.45;0.30;;;25.10;71.10;;;;;;6170502;28;20041;-50
2023/08/19 03:45:14;;;;;;;0.40;0.30;;;25.10;71.00;;;;;;6169433;28;20532;-51
2023/08/19 03:48:16;;;;;;;0.80;0.25;;;25.10;71.00;;;;;;6172702;28;20049;-48
2023/08/19 03:51:17;;;;;;;0.32;0.25;;;25.10;71.10;;;;;;6172325;28;20042;-48
2023/08/19 03:54:19;;;;;;;0.47;0.28;;;25.10;70.90;;;;;;6172685;28;20047;-50
2023/08/19 03:57:23;;;;;;;0.30;0.20;;;25.10;71.50;;;;;;6173900;28;20130;-49
2023/08/19 04:00:24;;;;;;;0.70;0.35;;;24.40;70.30;;;;;;6172041;28;20030;-47
2023/08/19 04:03:26;;;;;;;0.35;0.30;;;25.10;70.90;;;;;;6136502;28;20374;-49
2023/08/19 04:06:28;;;;;;;1.40;0.30;;;25.00;70.50;;;;;;6173622;28;20050;-50
2023/08/19 04:09:30;;;;;;;0.50;0.25;;;25.00;70.70;;;;;;6173330;28;20042;-47
2023/08/19 04:12:32;;;;;;;0.47;0.30;;;25.10;70.60;;;;;;6170654;28;20043;-47
2023/08/19 04:15:34;;;;;;;0.65;0.30;;;25.10;70.70;;;;;;6170741;28;20039;-49
2023/08/19 04:18:36;;;;;;;0.20;0.20;;;25.10;71.10;;;;;;6171880;28;20044;-49
2023/08/19 04:21:37;;;;;;;1.10;0.40;;;25.00;70.90;;;;;;6170275;28;20070;-48
2023/08/19 04:24:39;;;;;;;0.30;0.30;;;25.00;70.60;;;;;;6171300;28;20046;-51
2023/08/19 04:27:41;;;;;;;0.28;0.28;;;24.50;70.80;;;;;;6171744;28;20520;-50
2023/08/19 04:30:43;;;;;;;0.30;0.20;;;24.80;70.70;;;;;;6172733;28;20409;-48
2023/08/19 04:33:45;;;;;;;0.80;0.50;;;25.00;70.50;;;;;;6171007;28;20043;-49
2023/08/19 04:36:46;;;;;;;0.60;0.30;;;24.90;70.00;;;;;;6171630;28;20034;-49
2023/08/19 04:39:48;;;;;;;0.57;0.28;;;24.70;70.20;;;;;;6170877;28;20034;-49
2023/08/19 04:42:54;;;;;;;1.05;0.30;;;25.00;70.30;;;;;;6172655;28;20315;-51
2023/08/19 04:45:56;;;;;;;0.95;0.45;;;25.00;70.30;;;;;;6171458;28;20130;-48
2023/08/19 04:48:58;;;;;;;0.60;0.40;;;25.00;70.10;;;;;;6170992;28;20698;-49
2023/08/19 04:52:03;;;;;;;0.93;0.40;;;24.90;70.30;;;;;;6172958;28;20050;-50
2023/08/19 04:55:05;;;;;;;0.80;0.30;;;25.60;70.90;;;;;;6172941;28;20528;-50
2023/08/19 04:58:11;;;;;;;0.30;0.20;;;24.90;70.10;;;;;;6175233;28;20053;-50
2023/08/19 05:01:12;;;;;;;0.80;0.40;;;25.00;67.90;;;;;;6191292;28;20043;-48
2023/08/19 05:04:14;;;;;;;0.95;0.30;;;25.00;70.30;;;;;;6156709;28;20493;-46
2023/08/19 05:07:16;;;;;;;1.23;0.40;;;24.60;70.30;;;;;;6159948;28;20097;-51
2023/08/19 05:10:20;;;;;;;0.70;0.40;;;24.90;70.10;;;;;;6164641;28;20409;-51
2023/08/19 05:13:23;;;;;;;0.45;0.30;;;24.90;70.00;;;;;;6164475;28;20030;-48
2023/08/19 05:16:27;;;;;;;0.50;0.30;;;24.90;70.10;;;;;;6163559;28;20046;-51
2023/08/19 05:19:31;;;;;;;1.42;0.38;;;24.90;69.80;;;;;;6165612;28;20097;-50
2023/08/19 05:22:33;;;;;;;0.32;0.20;;;24.40;69.80;;;;;;6164197;28;20045;-48
2023/08/19 05:25:34;;;;;;;0.20;0.20;;;24.50;70.00;;;;;;6163200;28;20042;-48
2023/08/19 05:28:38;;;;;;;0.40;0.38;;;24.70;70.00;;;;;;6161701;28;20203;-48
2023/08/19 05:31:42;;;;;;;0.68;0.40;;;24.80;70.10;;;;;;6164649;28;20042;-49
2023/08/19 05:34:43;;;;;;;1.55;0.38;;;24.70;69.80;;;;;;6160950;28;20070;-48
2023/08/19 05:37:45;;;;;;;0.57;0.20;;;24.90;69.90;;;;;;6161782;28;20093;-48
2023/08/19 05:40:47;;;;;;;0.32;0.20;;;24.80;70.10;;;;;;6161155;28;20034;-48
2023/08/19 05:43:49;;;;;;;0.30;0.30;;;24.80;69.80;;;;;;6161814;28;20381;-46
2023/08/19 05:46:51;;;;;;;0.88;0.47;;;24.80;70.00;;;;;;6162325;28;20425;-50
2023/08/19 05:49:55;;;;;;;0.90;0.20;;;24.90;70.00;;;;;;6163537;28;20093;-47
2023/08/19 05:52:56;;;;;;;0.50;0.30;;;24.90;69.90;;;;;;6162319;28;20038;-51
2023/08/19 05:55:58;;;;;;;1.17;0.30;;;24.70;69.80;;;;;;6161977;28;20046;-48
2023/08/19 05:59:00;;;;;;;0.73;0.40;;;24.90;70.40;;;;;;6161079;28;20490;-50
2023/08/19 06:02:01;;;;;;;0.35;0.30;;;24.80;69.90;;;;;;6162667;28;20686;-48
2023/08/19 06:05:03;;;;;;;0.57;0.30;;;24.80;70.60;;;;;;6159764;28;20042;-50
2023/08/19 06:08:06;;;;;;;0.40;0.20;;;24.70;70.60;;;;;;6171025;28;20386;-48
2023/08/19 06:11:09;;;;;;;0.68;0.50;;;24.30;69.80;;;;;;6171840;28;20505;-48
2023/08/19 06:14:12;;;;;;;1.75;0.40;;;24.70;70.00;;;;;;6170001;28;20058;-48
2023/08/19 06:17:14;;;;;;;0.55;0.28;;;24.80;70.20;;;;;;6170401;28;20081;-49
2023/08/19 06:20:18;;;;;;;0.52;0.47;;;24.40;69.80;;;;;;6171623;28;20498;-49
2023/08/19 06:23:19;;;;;;;1.20;0.40;;;24.70;70.10;;;;;;6171400;28;20034;-47
2023/08/19 06:26:25;;;;;;;0.75;0.30;;;24.60;70.10;;;;;;6172842;28;20543;-50
2023/08/19 06:29:28;;;;;;;0.40;0.20;;;24.50;70.00;;;;;;6173935;28;20050;-47
2023/08/19 06:32:36;;;;;;;0.88;0.40;;;24.90;70.20;;;;;;6173603;28;20089;-45
2023/08/19 06:35:40;;;;;;;0.75;0.30;;;24.70;69.40;;;;;;6171941;28;20129;-44
2023/08/19 06:38:49;;;;;;;1.42;0.55;;;24.70;70.40;;;;;;6169375;28;20427;-45
2023/08/19 06:41:56;;;;;;;0.80;0.40;;;24.70;70.00;;;;;;6169514;28;20042;-45
2023/08/19 06:45:04;;;;;;;0.60;0.30;;;24.30;69.80;;;;;;6168801;28;20625;-43
2023/08/19 06:48:07;;;;;;;0.60;0.20;;;24.50;70.40;;;;;;6168519;28;20039;-46
2023/08/19 06:51:09;;;;;;;0.68;0.30;;;24.90;70.70;;;;;;6171531;28;20486;-44
2023/08/19 06:54:13;;;;;;;1.40;0.40;;;24.70;70.30;;;;;;6170410;28;20488;-45
2023/08/19 06:57:25;;;;;;;0.82;0.40;;;24.70;70.10;;;;;;6170191;28;20038;-45
2023/08/19 07:00:27;;;;;;;0.80;0.50;;;24.70;70.10;;;;;;6171625;28;20512;-46
2023/08/19 07:03:33;;;;;;;0.50;0.30;;;24.80;69.80;;;;;;6170898;28;20038;-46
2023/08/19 07:06:37;;;;;;;1.10;0.30;;;24.70;70.30;;;;;;6170888;28;20053;-45
2023/08/19 07:09:41;;;;;;;0.40;0.30;;;24.70;70.80;;;;;;6170739;28;20046;-45
2023/08/19 07:12:44;;;;;;;0.60;0.30;;;24.60;70.80;;;;;;6166774;28;20038;-46
2023/08/19 07:15:59;;;;;;;0.50;0.40;;;24.70;70.40;;;;;;6167994;28;20042;-44
2023/08/19 07:19:09;;;;;;;0.50;0.35;;;24.50;70.30;;;;;;6166246;28;20053;-45
2023/08/19 07:22:11;;;;;;;0.50;0.30;;;24.80;70.80;;;;;;6168178;28;20042;-45
2023/08/19 07:25:13;;;;;;;0.35;0.30;;;24.80;70.50;;;;;;6168454;28;20049;-44
2023/08/19 07:28:17;;;;;;;0.40;0.20;;;24.50;70.70;;;;;;6168897;28;20038;-46
2023/08/19 07:31:22;;;;;;;0.30;0.20;;;24.70;70.50;;;;;;6167048;28;20039;-44
2023/08/19 07:34:23;;;;;;;0.90;0.50;;;24.90;70.50;;;;;;6165379;28;20231;-45
2023/08/19 07:37:25;;;;;;;0.85;0.40;;;24.50;70.50;;;;;;6164588;28;20122;-44
2023/08/19 07:40:27;;;;;;;0.63;0.30;;;24.90;71.00;;;;;;6167919;28;20066;-44
2023/08/19 07:43:29;;;;;;;0.98;0.30;;;24.80;70.70;;;;;;6169880;28;20283;-46
2023/08/19 07:46:32;;;;;;;0.88;0.40;;;24.80;70.60;;;;;;6169265;28;20092;-46
2023/08/19 07:49:33;;;;;;;0.38;0.17;;;24.90;70.80;;;;;;6169216;28;20034;-47
2023/08/19 07:52:38;;;;;;;0.70;0.47;;;24.50;70.40;;;;;;6168494;28;20038;-45
2023/08/19 07:55:41;;;;;;;0.75;0.30;;;24.40;70.90;;;;;;6171227;28;20049;-45
2023/08/19 07:58:43;;;;;;;0.75;0.30;;;24.90;70.60;;;;;;6168503;28;20042;-46
2023/08/19 08:01:45;;;;;;;0.55;0.40;;;25.20;71.00;;;;;;6171192;28;20300;-46
2023/08/19 08:04:50;;;;;;;1.45;0.40;;;24.90;70.70;;;;;;6170844;28;20416;-45
2023/08/19 08:07:52;;;;;;;1.00;0.50;;;24.90;70.90;;;;;;6168766;28;20417;-45
2023/08/19 08:10:54;;;;;;;0.77;0.40;;;24.90;70.20;;;;;;6164391;28;20737;-44
2023/08/19 08:13:56;;;;;;;0.68;0.20;;;24.90;71.00;;;;;;6164939;28;20277;-44
2023/08/19 08:16:58;;;;;;;0.22;0.22;;;24.90;70.30;;;;;;6165382;28;20049;-44
2023/08/19 08:20:00;;;;;;;0.98;0.30;;;24.80;70.80;;;;;;6166729;28;20043;-45
2023/08/19 08:23:01;;;;;;;0.40;0.20;;;25.00;70.40;;;;;;6168220;28;20560;-46
2023/08/19 08:26:05;;;;;;;0.15;0.15;;;25.00;70.90;;;;;;6167636;28;20414;-44
2023/08/19 08:29:06;;;;;;;0.52;0.30;;;24.90;69.90;;;;;;6170050;28;20121;-44
2023/08/19 08:32:09;;;;;;;0.57;0.28;;;25.10;70.80;;;;;;6171450;28;20112;-47
2023/08/19 08:35:13;;;;;;;0.95;0.40;;;24.60;70.30;;;;;;6171578;28;20524;-45
2023/08/19 08:38:15;;;;;;;0.68;0.30;;;24.40;70.10;;;;;;6171201;28;20050;-46
2023/08/19 08:41:17;;;;;;;0.70;0.30;;;24.90;70.00;;;;;;6173023;28;20431;-47
2023/08/19 08:44:20;;;;;;;0.43;0.25;;;25.00;70.30;;;;;;6172900;28;20042;-47
2023/08/19 08:47:26;;;;;;;1.35;0.40;;;25.10;69.90;;;;;;6172302;28;20035;-46
2023/08/19 08:50:28;;;;;;;0.60;0.25;;;25.10;70.20;;;;;;6173039;28;20121;-44
2023/08/19 08:53:30;;;;;;;0.43;0.30;;;25.40;69.70;;;;;;6170211;28;20509;-45
2023/08/19 08:56:35;;;;;;;0.50;0.20;;;25.00;69.70;;;;;;6171859;28;20038;-45
2023/08/19 08:59:36;;;;;;;0.75;0.28;;;25.00;69.30;;;;;;6173521;28;20271;-45
2023/08/19 09:02:39;;;;;;;0.68;0.30;;;24.90;70.10;;;;;;6174058;28;20724;-45
2023/08/19 09:05:42;;;;;;;0.50;0.40;;;24.90;69.30;;;;;;6172996;28;20047;-46
2023/08/19 09:08:48;;;;;;;0.88;0.22;;;25.00;69.80;;;;;;6173941;28;20042;-46
2023/08/19 09:11:54;;;;;;;0.60;0.32;;;24.60;68.90;;;;;;6174406;28;20046;-45
2023/08/19 09:15:03;;;;;;;0.55;0.25;;;25.10;66.50;;;;;;6173943;28;20046;-45
2023/08/19 09:18:06;;;;;;;1.23;0.30;;;25.10;69.00;;;;;;6173778;28;20042;-45
2023/08/19 09:21:09;;;;;;;0.65;0.20;;;25.10;69.60;;;;;;6175060;28;20038;-46
2023/08/19 09:24:15;;;;;;;0.25;0.20;;;25.00;67.90;;;;;;6142298;28;20101;-44
2023/08/19 09:27:24;;;;;;;0.90;0.30;;;25.10;68.60;;;;;;6173501;28;20413;-45
2023/08/19 09:30:32;;;;;;;0.93;0.30;;;24.80;68.30;;;;;;6177205;28;20046;-45
2023/08/19 09:33:43;;;;;;;0.70;0.30;;;25.10;68.40;;;;;;6174628;28;20038;-46
2023/08/19 09:36:45;;;;;;;1.08;0.45;;;25.10;68.30;;;;;;6174038;28;20034;-45
2023/08/19 09:39:46;;;;;;;0.70;0.40;;;25.10;68.40;;;;;;6174265;28;20073;-44
2023/08/19 09:42:52;;;;;;;0.45;0.40;;;25.10;68.20;;;;;;6173158;28;20042;-46
2023/08/19 09:45:56;;;;;;;1.17;0.40;;;25.20;68.00;;;;;;6173361;28;20042;-46
2023/08/19 09:48:58;;;;;;;1.25;0.32;;;25.30;68.40;;;;;;6175173;28;20039;-45
2023/08/19 09:52:00;;;;;;;0.77;0.40;;;25.20;68.00;;;;;;6172650;28;20727;-46
2023/08/19 09:55:02;;;;;;;0.95;0.40;;;24.80;68.20;;;;;;6170796;28;20145;-47
2023/08/19 09:58:04;;;;;;;1.23;0.40;;;25.30;67.90;;;;;;6171795;28;20045;-46
2023/08/19 10:01:06;;;;;;;0.75;0.22;;;25.30;67.70;;;;;;6172686;28;20042;-47
2023/08/19 10:04:08;;;;;;;0.60;0.30;;;24.90;67.80;;;;;;6172837;28;20399;-44
2023/08/19 10:07:16;;;;;;;0.82;0.30;;;25.20;67.10;;;;;;6170951;28;20042;-46
2023/08/19 10:10:20;;;;;;;2.42;0.38;;;25.60;67.50;;;;;;6172521;28;20092;-45
2023/08/19 10:13:25;;;;;;;1.17;0.30;;;25.30;67.60;;;;;;6172832;28;20425;-46
2023/08/19 10:16:28;;;;;;;0.90;0.40;;;25.30;67.00;;;;;;6169458;28;20062;-45
2023/08/19 10:19:36;;;;;;;0.85;0.30;;;24.90;66.60;;;;;;6173479;28;20066;-45
2023/08/19 10:22:41;;;;;;;1.27;0.30;;;25.00;66.50;;;;;;6170415;28;20485;-45
2023/08/19 10:25:43;;;;;;;0.63;0.20;;;25.40;67.10;;;;;;6169943;28;20433;-45
2023/08/19 10:29:03;;;;;;;0.93;0.30;;;25.20;66.40;;;;;;6170410;28;20355;-46
2023/08/19 10:32:24;;;;;;;0.30;0.20;;;25.40;66.30;;;;;;6171644;28;20105;-45
2023/08/19 10:35:26;;;;;;;0.80;0.68;;;25.20;66.20;;;;;;6172016;28;20050;-44
2023/08/19 10:38:43;;;;;;;0.35;0.20;;;25.40;66.00;;;;;;6169929;28;20042;-46
2023/08/19 10:41:50;;;;;;;0.40;0.20;;;25.40;65.80;;;;;;6170768;28;20034;-44
2023/08/19 10:44:52;;;;;;;1.33;0.30;;;25.30;65.60;;;;;;6171466;28;20046;-45
2023/08/19 10:47:54;;;;;;;0.98;0.30;;;25.40;65.80;;;;;;6171696;28;20045;-44
2023/08/19 10:50:56;;;;;;;0.30;0.20;;;24.90;65.60;;;;;;6171010;28;20048;-45
2023/08/19 10:54:06;;;;;;;0.65;0.20;;;25.90;66.00;;;;;;6171160;28;20421;-47
2023/08/19 10:57:09;;;;;;;0.63;0.30;;;25.50;65.30;;;;;;6169730;28;20042;-45
2023/08/19 11:00:12;;;;;;;0.20;0.15;;;25.30;65.60;;;;;;6168477;28;20054;-45
2023/08/19 11:03:15;;;;;;;0.50;0.30;;;25.40;65.20;;;;;;6171499;28;20087;-46
2023/08/19 11:06:19;;;;;;;0.57;0.22;;;25.40;65.20;;;;;;6172505;28;20042;-46
2023/08/19 11:09:26;;;;;;;0.35;0.20;;;25.40;65.10;;;;;;6168957;28;20038;-45
2023/08/19 11:12:29;;;;;;;0.32;0.20;;;25.50;65.00;;;;;;6171999;28;20046;-47
2023/08/19 11:15:31;;;;;;;0.63;0.30;;;25.40;64.70;;;;;;6170417;28;20608;-45
2023/08/19 11:18:39;;;;;;;0.43;0.10;;;25.40;64.90;;;;;;6170537;28;20155;-45
2023/08/19 11:21:41;;;;;;;0.52;0.30;;;25.40;65.00;;;;;;6170630;28;20057;-47
2023/08/19 11:24:44;;;;;;;1.08;0.30;;;25.30;64.30;;;;;;6168825;28;20035;-47
2023/08/19 11:27:46;;;;;;;0.50;0.30;;;25.10;64.40;;;;;;6170645;28;20037;-45
2023/08/19 11:30:48;;;;;;;0.32;0.30;;;25.30;64.70;;;;;;6170663;28;20213;-46
2023/08/19 11:33:49;;;;;;;1.08;0.20;;;25.40;64.40;;;;;;6171994;28;20426;-47
2023/08/19 11:36:51;;;;;;;1.17;0.50;;;25.50;64.40;;;;;;6169674;28;20043;-46
2023/08/19 11:39:53;;;;;;;0.77;0.30;;;25.40;64.70;;;;;;6169117;28;20043;-46
2023/08/19 11:43:06;;;;;;;1.73;0.40;;;25.10;63.70;;;;;;6169496;28;20072;-46
2023/08/19 11:46:08;;;;;;;0.73;0.35;;;25.50;65.20;;;;;;6170559;28;20046;-47
2023/08/19 11:49:11;;;;;;;0.95;0.30;;;25.50;62.30;;;;;;6170307;28;20108;-46
2023/08/19 11:52:18;;;;;;;0.73;0.25;;;25.50;63.90;;;;;;6171148;28;20046;-46
2023/08/19 11:55:25;;;;;;;1.05;0.30;;;25.50;63.60;;;;;;6167464;28;20275;-44
2023/08/19 11:58:38;;;;;;;0.43;0.10;;;25.50;64.10;;;;;;6168882;28;20038;-46
2023/08/19 12:01:39;;;;;;;0.57;0.30;;;25.30;63.50;;;;;;6167416;28;20401;-45
2023/08/19 12:04:41;;;;;;;0.32;0.15;;;25.50;63.60;;;;;;6168794;28;20122;-47
2023/08/19 12:07:43;;;;;;;0.55;0.32;;;25.10;63.30;;;;;;6170590;28;20654;-45
2023/08/19 12:10:45;;;;;;;0.30;0.30;;;25.50;63.30;;;;;;6139392;28;20046;-46
2023/08/19 12:13:50;;;;;;;0.80;0.30;;;25.50;63.20;;;;;;6171880;28;20568;-45
2023/08/19 12:16:51;;;;;;;0.63;0.52;;;25.60;63.10;;;;;;6173919;28;20034;-46
2023/08/19 12:19:53;;;;;;;0.90;0.20;;;25.50;63.00;;;;;;6173228;28;20560;-46
2023/08/19 12:22:54;;;;;;;0.30;0.30;;;25.10;62.80;;;;;;6173449;28;20030;-45
2023/08/19 12:25:58;;;;;;;0.50;0.25;;;25.60;62.80;;;;;;6172888;28;20057;-45
2023/08/19 12:29:02;;;;;;;0.43;0.10;;;25.10;62.40;;;;;;6166747;28;20034;-45
2023/08/19 12:32:05;;;;;;;0.63;0.28;;;25.50;63.10;;;;;;6170304;28;20096;-46
2023/08/19 12:35:09;;;;;;;0.73;0.20;;;25.50;62.70;;;;;;6162487;28;20045;-45
2023/08/19 12:38:12;;;;;;;0.65;0.30;;;25.60;63.00;;;;;;6170038;28;20120;-45
2023/08/19 12:41:15;;;;;;;0.40;0.20;;;25.10;62.50;;;;;;6173368;28;20039;-45
2023/08/19 12:44:19;;;;;;;0.50;0.20;;;25.00;62.50;;;;;;6170796;28;20532;-46
2023/08/19 12:47:23;;;;;;;0.40;0.20;;;25.50;62.90;;;;;;6168691;28;20034;-46
2023/08/19 12:50:25;;;;;;;0.47;0.20;;;25.60;62.50;;;;;;6171905;28;20038;-47
2023/08/19 12:53:26;;;;;;;1.65;0.60;;;25.30;62.20;;;;;;6167075;28;20142;-46
2023/08/19 12:56:28;;;;;;;0.35;0.20;;;25.60;62.20;;;;;;6172894;28;20050;-45
2023/08/19 12:59:32;;;;;;;0.40;0.28;;;25.70;62.30;;;;;;6171819;28;20409;-45
2023/08/19 13:02:33;;;;;;;1.38;0.38;;;25.60;62.10;;;;;;6169168;28;20046;-46
2023/08/19 13:05:35;;;;;;;0.60;0.30;;;25.50;62.10;;;;;;6173892;28;20452;-48
2023/08/19 13:08:38;;;;;;;1.10;0.30;;;25.50;61.90;;;;;;6172677;28;20050;-45
2023/08/19 13:11:43;;;;;;;1.02;0.20;;;25.50;61.90;;;;;;6168731;28;20069;-49
2023/08/19 13:14:48;;;;;;;0.43;0.20;;;25.20;61.40;;;;;;6172683;28;20049;-45
2023/08/19 13:17:49;;;;;;;0.73;0.20;;;25.50;61.80;;;;;;6165690;28;20034;-46
2023/08/19 13:20:51;;;;;;;0.40;0.20;;;25.50;61.60;;;;;;6170947;28;20097;-46
2023/08/19 13:23:56;;;;;;;0.35;0.13;;;25.60;61.70;;;;;;6161427;28;20308;-46
2023/08/19 13:26:57;;;;;;;0.70;0.30;;;25.50;61.30;;;;;;6166442;28;20043;-44
2023/08/19 13:30:03;;;;;;;0.47;0.20;;;25.50;61.40;;;;;;6171800;28;20486;-45
2023/08/19 13:33:08;;;;;;;0.20;0.20;;;25.20;59.10;;;;;;6170483;28;20489;-47
2023/08/19 13:36:13;;;;;;;0.73;0.35;;;25.60;61.60;;;;;;6172177;28;20132;-48
2023/08/19 13:39:15;;;;;;;0.40;0.20;;;25.50;61.00;;;;;;6171359;28;20069;-46
2023/08/19 13:42:17;;;;;;;0.93;0.40;;;25.70;61.40;;;;;;6172092;28;20170;-46
2023/08/19 13:45:20;;;;;;;0.45;0.20;;;25.70;60.90;;;;;;6170945;28;20042;-46
2023/08/19 13:48:21;;;;;;;1.08;0.38;;;25.70;61.00;;;;;;6171930;28;20042;-47
2023/08/19 13:51:23;;;;;;;1.13;0.38;;;25.60;60.90;;;;;;6169309;28;20181;-45
2023/08/19 13:54:25;;;;;;;0.40;0.30;;;25.60;60.90;;;;;;6170349;28;20042;-47
2023/08/19 13:57:29;;;;;;;0.50;0.28;;;25.50;61.20;;;;;;6157846;28;20299;-46
2023/08/19 14:00:30;;;;;;;0.30;0.20;;;25.60;61.30;;;;;;6167851;28;20089;-47
2023/08/19 14:03:32;;;;;;;0.68;0.30;;;26.10;61.10;;;;;;6171399;28;20492;-46
2023/08/19 14:06:33;;;;;;;0.20;0.20;;;25.60;60.80;;;;;;6169659;28;20788;-45
2023/08/19 14:09:37;;;;;;;1.17;0.20;;;25.60;61.10;;;;;;6171801;28;20042;-44
2023/08/19 14:12:39;;;;;;;0.28;0.28;;;25.30;60.30;;;;;;6172657;28;20166;-46
2023/08/19 14:15:42;;;;;;;0.95;0.30;;;25.60;60.00;;;;;;6172525;28;20050;-46
2023/08/19 14:18:43;;;;;;;0.57;0.20;;;25.60;60.60;;;;;;6171191;28;20073;-45
2023/08/19 14:21:45;;;;;;;1.00;0.20;;;25.70;60.40;;;;;;6172400;28;20416;-47
2023/08/19 14:24:50;;;;;;;0.43;0.20;;;25.60;60.70;;;;;;6170583;28;20053;-47
2023/08/19 14:27:55;;;;;;;0.38;0.10;;;25.70;60.40;;;;;;6171389;28;20050;-45
2023/08/19 14:30:57;;;;;;;0.20;0.20;;;25.50;58.50;;;;;;6170634;28;20039;-48
2023/08/19 14:33:58;;;;;;;0.28;0.17;;;25.60;60.20;;;;;;6162845;28;20046;-47
2023/08/19 14:37:02;;;;;;;1.30;0.30;;;25.60;60.50;;;;;;6165412;28;20413;-45
2023/08/19 14:40:05;;;;;;;0.50;0.30;;;25.60;60.20;;;;;;6165573;28;20038;-46
2023/08/19 14:43:07;;;;;;;0.82;0.35;;;25.60;60.30;;;;;;6170825;28;20035;-45
2023/08/19 14:46:09;;;;;;;0.85;0.20;;;25.20;60.00;;;;;;6168019;28;20572;-44
2023/08/19 14:49:11;;;;;;;0.43;0.30;;;25.40;60.10;;;;;;6172459;28;20039;-45
2023/08/19 14:52:17;;;;;;;0.85;0.30;;;25.40;60.10;;;;;;6169856;28;20031;-46
2023/08/19 14:55:22;;;;;;;0.55;0.30;;;25.60;60.60;;;;;;6171867;28;20077;-47
2023/08/19 14:58:24;;;;;;;0.35;0.20;;;25.90;57.70;;;;;;6171486;28;20053;-46
2023/08/19 15:01:25;;;;;;;0.82;0.20;;;25.70;60.30;;;;;;6164191;28;20063;-46
2023/08/19 15:04:27;;;;;;;0.85;0.40;;;25.70;60.00;;;;;;6160696;28;20628;-45
2023/08/19 15:07:29;;;;;;;0.38;0.20;;;25.60;60.10;;;;;;6171873;28;20046;-46
2023/08/19 15:10:30;;;;;;;0.30;0.20;;;25.40;60.20;;;;;;6170862;28;20034;-48
2023/08/19 15:13:32;;;;;;;0.68;0.20;;;25.50;60.00;;;;;;6169603;28;20039;-46
2023/08/19 15:16:34;;;;;;;0.45;0.20;;;25.70;60.50;;;;;;6168073;28;20660;-46
2023/08/19 15:19:36;;;;;;;0.77;0.25;;;25.70;59.90;;;;;;6169617;28;20066;-46
2023/08/19 15:22:37;;;;;;;0.80;0.30;;;25.60;60.10;;;;;;6171259;28;20128;-46
2023/08/19 15:25:39;;;;;;;0.35;0.20;;;25.70;60.50;;;;;;6167840;28;20053;-45
2023/08/19 15:28:41;;;;;;;0.35;0.25;;;25.70;59.80;;;;;;6165982;28;20035;-48
2023/08/19 15:31:43;;;;;;;0.65;0.20;;;25.40;59.80;;;;;;6170174;28;20486;-46
2023/08/19 15:34:44;;;;;;;0.80;0.25;;;25.30;59.30;;;;;;6166868;28;20429;-47
2023/08/19 15:37:46;;;;;;;0.32;0.15;;;25.70;59.50;;;;;;6168157;28;20490;-46
2023/08/19 15:40:50;;;;;;;0.95;0.20;;;25.70;59.30;;;;;;6170263;28;20050;-46
2023/08/19 15:43:52;;;;;;;0.47;0.17;;;25.70;60.00;;;;;;6170673;28;20046;-45
2023/08/19 15:46:53;;;;;;;0.30;0.10;;;25.60;58.90;;;;;;6168900;28;20521;-45
2023/08/19 15:50:03;;;;;;;0.50;0.20;;;25.70;59.20;;;;;;6167744;28;20510;-46
2023/08/19 15:53:05;;;;;;;0.50;0.10;;;25.60;58.50;;;;;;6170702;28;20050;-45
2023/08/19 15:56:06;;;;;;;0.20;0.20;;;25.70;59.20;;;;;;6171462;28;20641;-46